sensor_id;sensor_type;location;lat;lon;timestamp;temperature;humidity
24217;DHT22;12356;49.386;8.688;2023-08-24T00:02:10;24.80;1.00
24217;DHT22;12356;49.386;8.688;2023-08-24T00:04:41;24.70;1.00
24217;DHT22;12356;49.386;8.688;2023-08-24T00:07:12;24.70;1.00
24217;DHT22;12356;49.386;8.688;2023-08-24T00:09:43;24.70;1.00
24217;DHT22;12356;49.386;8.688;2023-08-24T00:12:13;24.80;1.00
24217;DHT22;12356;49.386;8.688;2023-08-24T00:14:44;24.80;1.00
24217;DHT22;12356;49.386;8.688;2023-08-24T00:17:14;24.80;1.00
24217;DHT22;12356;49.386;8.688;2023-08-24T00:19:45;24.80;1.00
24217;DHT22;12356;49.386;8.688;2023-08-24T00:22:17;24.80;1.00
24217;DHT22;12356;49.386;8.688;2023-08-24T00:24:47;24.80;1.00
24217;DHT22;12356;49.386;8.688;2023-08-24T00:27:18;24.80;1.00
24217;DHT22;12356;49.386;8.688;2023-08-24T00:29:48;24.80;1.00
24217;DHT22;12356;49.386;8.688;2023-08-24T00:32:19;24.80;1.00
24217;DHT22;12356;49.386;8.688;2023-08-24T00:34:49;24.80;1.00
24217;DHT22;12356;49.386;8.688;2023-08-24T00:37:20;24.80;1.00
24217;DHT22;12356;49.386;8.688;2023-08-24T00:39:50;24.80;1.00
24217;DHT22;12356;49.386;8.688;2023-08-24T00:42:21;24.80;1.00
24217;DHT22;12356;49.386;8.688;2023-08-24T00:44:52;24.80;1.00
24217;DHT22;12356;49.386;8.688;2023-08-24T00:47:24;24.90;1.00
24217;DHT22;12356;49.386;8.688;2023-08-24T00:49:55;24.90;1.00
24217;DHT22;12356;49.386;8.688;2023-08-24T00:52:26;24.90;1.00
24217;DHT22;12356;49.386;8.688;2023-08-24T00:54:59;24.90;1.00
24217;DHT22;12356;49.386;8.688;2023-08-24T00:57:29;24.90;1.00
24217;DHT22;12356;49.386;8.688;2023-08-24T01:00:03;24.90;1.00
24217;DHT22;12356;49.386;8.688;2023-08-24T01:02:36;24.90;1.00
24217;DHT22;12356;49.386;8.688;2023-08-24T01:05:07;24.80;1.00
24217;DHT22;12356;49.386;8.688;2023-08-24T01:07:39;24.80;1.00
24217;DHT22;12356;49.386;8.688;2023-08-24T01:10:10;24.80;1.00
24217;DHT22;12356;49.386;8.688;2023-08-24T01:13:07;24.70;1.00
24217;DHT22;12356;49.386;8.688;2023-08-24T01:15:52;24.60;1.80
24217;DHT22;12356;49.386;8.688;2023-08-24T01:18:26;24.60;1.50
24217;DHT22;12356;49.386;8.688;2023-08-24T01:20:58;24.50;2.10
24217;DHT22;12356;49.386;8.688;2023-08-24T01:26:16;24.20;2.30
24217;DHT22;12356;49.386;8.688;2023-08-24T01:28:47;24.10;3.70
24217;DHT22;12356;49.386;8.688;2023-08-24T01:31:18;24.00;4.10
24217;DHT22;12356;49.386;8.688;2023-08-24T01:33:49;24.00;4.60
24217;DHT22;12356;49.386;8.688;2023-08-24T01:36:19;23.90;4.40
24217;DHT22;12356;49.386;8.688;2023-08-24T01:38:59;23.90;4.80
24217;DHT22;12356;49.386;8.688;2023-08-24T01:41:37;23.80;5.70
24217;DHT22;12356;49.386;8.688;2023-08-24T01:44:13;23.70;6.20
24217;DHT22;12356;49.386;8.688;2023-08-24T01:46:45;23.60;5.70
24217;DHT22;12356;49.386;8.688;2023-08-24T01:49:19;23.60;6.80
24217;DHT22;12356;49.386;8.688;2023-08-24T01:51:50;23.50;7.60
24217;DHT22;12356;49.386;8.688;2023-08-24T01:54:21;23.40;6.50
24217;DHT22;12356;49.386;8.688;2023-08-24T01:56:52;23.40;6.40
24217;DHT22;12356;49.386;8.688;2023-08-24T01:59:22;23.30;7.90
24217;DHT22;12356;49.386;8.688;2023-08-24T02:01:53;23.30;8.50
24217;DHT22;12356;49.386;8.688;2023-08-24T02:04:23;23.30;8.20
24217;DHT22;12356;49.386;8.688;2023-08-24T02:06:54;23.30;8.90
24217;DHT22;12356;49.386;8.688;2023-08-24T02:09:24;23.30;8.80
24217;DHT22;12356;49.386;8.688;2023-08-24T02:11:55;23.20;9.80
24217;DHT22;12356;49.386;8.688;2023-08-24T02:14:25;23.20;9.80
24217;DHT22;12356;49.386;8.688;2023-08-24T02:16:56;23.10;10.20
24217;DHT22;12356;49.386;8.688;2023-08-24T02:19:26;23.00;10.00
24217;DHT22;12356;49.386;8.688;2023-08-24T02:21:57;22.90;10.60
24217;DHT22;12356;49.386;8.688;2023-08-24T02:24:28;22.80;11.30
24217;DHT22;12356;49.386;8.688;2023-08-24T02:26:58;22.90;11.20
24217;DHT22;12356;49.386;8.688;2023-08-24T02:29:29;22.80;11.60
24217;DHT22;12356;49.386;8.688;2023-08-24T02:32:00;22.90;11.20
24217;DHT22;12356;49.386;8.688;2023-08-24T02:34:31;22.80;12.20
24217;DHT22;12356;49.386;8.688;2023-08-24T02:37:01;22.90;11.80
24217;DHT22;12356;49.386;8.688;2023-08-24T02:39:32;22.80;12.20
24217;DHT22;12356;49.386;8.688;2023-08-24T02:42:02;22.80;12.90
24217;DHT22;12356;49.386;8.688;2023-08-24T02:44:33;22.80;12.70
24217;DHT22;12356;49.386;8.688;2023-08-24T02:47:04;22.70;14.00
24217;DHT22;12356;49.386;8.688;2023-08-24T02:49:35;22.70;14.00
24217;DHT22;12356;49.386;8.688;2023-08-24T02:52:05;22.70;13.70
24217;DHT22;12356;49.386;8.688;2023-08-24T02:54:36;22.70;14.70
24217;DHT22;12356;49.386;8.688;2023-08-24T02:57:06;22.70;14.90
24217;DHT22;12356;49.386;8.688;2023-08-24T02:59:37;22.70;14.70
24217;DHT22;12356;49.386;8.688;2023-08-24T03:02:07;22.60;14.90
24217;DHT22;12356;49.386;8.688;2023-08-24T03:04:38;22.60;15.70
24217;DHT22;12356;49.386;8.688;2023-08-24T03:07:08;22.60;15.00
24217;DHT22;12356;49.386;8.688;2023-08-24T03:09:40;22.60;14.60
24217;DHT22;12356;49.386;8.688;2023-08-24T03:12:11;22.50;14.30
24217;DHT22;12356;49.386;8.688;2023-08-24T03:14:42;22.50;15.20
24217;DHT22;12356;49.386;8.688;2023-08-24T03:17:13;22.50;15.70
24217;DHT22;12356;49.386;8.688;2023-08-24T03:19:43;22.50;14.90
24217;DHT22;12356;49.386;8.688;2023-08-24T03:22:14;22.50;15.50
24217;DHT22;12356;49.386;8.688;2023-08-24T03:24:44;22.50;15.50
24217;DHT22;12356;49.386;8.688;2023-08-24T03:27:15;22.50;15.00
24217;DHT22;12356;49.386;8.688;2023-08-24T03:29:46;22.50;16.10
24217;DHT22;12356;49.386;8.688;2023-08-24T03:32:16;22.40;16.10
24217;DHT22;12356;49.386;8.688;2023-08-24T03:34:47;22.40;16.60
24217;DHT22;12356;49.386;8.688;2023-08-24T03:37:17;22.40;16.60
24217;DHT22;12356;49.386;8.688;2023-08-24T03:39:48;22.40;16.70
24217;DHT22;12356;49.386;8.688;2023-08-24T03:42:18;22.40;17.90
24217;DHT22;12356;49.386;8.688;2023-08-24T03:44:49;22.40;17.40
24217;DHT22;12356;49.386;8.688;2023-08-24T03:47:20;22.40;17.80
24217;DHT22;12356;49.386;8.688;2023-08-24T03:49:50;22.40;17.90
24217;DHT22;12356;49.386;8.688;2023-08-24T03:52:21;22.40;18.30
24217;DHT22;12356;49.386;8.688;2023-08-24T03:54:51;22.40;17.30
24217;DHT22;12356;49.386;8.688;2023-08-24T03:57:22;22.40;16.80
24217;DHT22;12356;49.386;8.688;2023-08-24T03:59:52;22.40;16.00
24217;DHT22;12356;49.386;8.688;2023-08-24T04:02:23;22.40;13.30
24217;DHT22;12356;49.386;8.688;2023-08-24T04:04:54;22.50;7.00
24217;DHT22;12356;49.386;8.688;2023-08-24T04:07:24;22.70;5.00
24217;DHT22;12356;49.386;8.688;2023-08-24T04:09:55;22.80;3.30
24217;DHT22;12356;49.386;8.688;2023-08-24T04:12:25;23.00;3.00
24217;DHT22;12356;49.386;8.688;2023-08-24T04:14:56;23.10;1.60
24217;DHT22;12356;49.386;8.688;2023-08-24T04:17:27;23.30;2.10
24217;DHT22;12356;49.386;8.688;2023-08-24T04:19:58;23.40;1.00
24217;DHT22;12356;49.386;8.688;2023-08-24T04:22:29;23.50;1.00
24217;DHT22;12356;49.386;8.688;2023-08-24T04:24:59;23.60;1.30
24217;DHT22;12356;49.386;8.688;2023-08-24T04:27:31;23.70;1.00
24217;DHT22;12356;49.386;8.688;2023-08-24T04:30:02;23.70;1.00
24217;DHT22;12356;49.386;8.688;2023-08-24T04:32:33;23.80;1.00
24217;DHT22;12356;49.386;8.688;2023-08-24T04:35:04;23.80;1.00
24217;DHT22;12356;49.386;8.688;2023-08-24T04:37:35;24.00;1.00
24217;DHT22;12356;49.386;8.688;2023-08-24T04:40:06;24.00;1.00
24217;DHT22;12356;49.386;8.688;2023-08-24T04:42:37;24.00;1.00
24217;DHT22;12356;49.386;8.688;2023-08-24T04:45:08;24.10;1.00
24217;DHT22;12356;49.386;8.688;2023-08-24T04:47:39;24.10;1.00
24217;DHT22;12356;49.386;8.688;2023-08-24T04:50:09;24.10;1.00
24217;DHT22;12356;49.386;8.688;2023-08-24T04:52:40;24.10;1.00
24217;DHT22;12356;49.386;8.688;2023-08-24T04:55:11;24.10;1.00
24217;DHT22;12356;49.386;8.688;2023-08-24T04:57:41;24.10;1.20
24217;DHT22;12356;49.386;8.688;2023-08-24T05:00:13;24.10;2.80
24217;DHT22;12356;49.386;8.688;2023-08-24T05:02:46;24.00;3.40
24217;DHT22;12356;49.386;8.688;2023-08-24T05:05:16;24.00;1.90
24217;DHT22;12356;49.386;8.688;2023-08-24T05:07:49;24.00;1.70
24217;DHT22;12356;49.386;8.688;2023-08-24T05:10:19;23.90;2.60
24217;DHT22;12356;49.386;8.688;2023-08-24T05:12:50;23.90;3.60
24217;DHT22;12356;49.386;8.688;2023-08-24T05:15:21;23.80;3.80
24217;DHT22;12356;49.386;8.688;2023-08-24T05:17:51;23.80;6.20
24217;DHT22;12356;49.386;8.688;2023-08-24T05:20:25;23.70;5.30
24217;DHT22;12356;49.386;8.688;2023-08-24T05:22:57;23.60;3.40
24217;DHT22;12356;49.386;8.688;2023-08-24T05:25:28;23.60;3.70
24217;DHT22;12356;49.386;8.688;2023-08-24T05:27:59;23.60;4.60
24217;DHT22;12356;49.386;8.688;2023-08-24T05:30:29;23.60;5.60
24217;DHT22;12356;49.386;8.688;2023-08-24T05:33:00;23.50;7.00
24217;DHT22;12356;49.386;8.688;2023-08-24T05:35:31;23.50;6.70
24217;DHT22;12356;49.386;8.688;2023-08-24T05:38:01;23.50;7.20
24217;DHT22;12356;49.386;8.688;2023-08-24T05:40:33;23.50;8.10
24217;DHT22;12356;49.386;8.688;2023-08-24T05:43:04;23.50;7.90
24217;DHT22;12356;49.386;8.688;2023-08-24T05:45:35;23.50;6.10
24217;DHT22;12356;49.386;8.688;2023-08-24T05:48:06;23.50;5.90
24217;DHT22;12356;49.386;8.688;2023-08-24T05:50:42;23.50;6.30
24217;DHT22;12356;49.386;8.688;2023-08-24T05:53:13;23.50;7.90
24217;DHT22;12356;49.386;8.688;2023-08-24T05:55:44;23.50;9.60
24217;DHT22;12356;49.386;8.688;2023-08-24T05:58:14;23.40;9.50
24217;DHT22;12356;49.386;8.688;2023-08-24T06:00:45;23.30;9.80
24217;DHT22;12356;49.386;8.688;2023-08-24T06:03:16;23.20;11.20
24217;DHT22;12356;49.386;8.688;2023-08-24T06:05:46;23.10;12.40
24217;DHT22;12356;49.386;8.688;2023-08-24T06:08:17;23.10;14.00
24217;DHT22;12356;49.386;8.688;2023-08-24T06:10:47;23.00;14.50
24217;DHT22;12356;49.386;8.688;2023-08-24T06:13:18;23.00;16.30
24217;DHT22;12356;49.386;8.688;2023-08-24T06:15:49;23.00;15.20
24217;DHT22;12356;49.386;8.688;2023-08-24T06:18:19;22.90;14.50
24217;DHT22;12356;49.386;8.688;2023-08-24T06:20:50;22.90;14.90
24217;DHT22;12356;49.386;8.688;2023-08-24T06:23:22;22.90;14.60
24217;DHT22;12356;49.386;8.688;2023-08-24T06:25:52;22.90;14.70
24217;DHT22;12356;49.386;8.688;2023-08-24T06:28:23;22.90;15.10
24217;DHT22;12356;49.386;8.688;2023-08-24T06:30:55;22.90;14.40
24217;DHT22;12356;49.386;8.688;2023-08-24T06:33:28;22.90;15.20
24217;DHT22;12356;49.386;8.688;2023-08-24T06:36:02;22.90;15.50
24217;DHT22;12356;49.386;8.688;2023-08-24T06:38:35;22.90;17.80
24217;DHT22;12356;49.386;8.688;2023-08-24T06:41:06;22.90;18.00
24217;DHT22;12356;49.386;8.688;2023-08-24T06:43:37;22.90;16.50
24217;DHT22;12356;49.386;8.688;2023-08-24T06:46:09;22.90;16.30
24217;DHT22;12356;49.386;8.688;2023-08-24T06:48:39;22.90;16.10
24217;DHT22;12356;49.386;8.688;2023-08-24T06:51:12;22.90;17.70
24217;DHT22;12356;49.386;8.688;2023-08-24T06:53:43;23.00;16.80
24217;DHT22;12356;49.386;8.688;2023-08-24T06:56:13;23.00;16.00
24217;DHT22;12356;49.386;8.688;2023-08-24T06:58:45;23.00;18.20
24217;DHT22;12356;49.386;8.688;2023-08-24T07:01:16;22.90;18.10
24217;DHT22;12356;49.386;8.688;2023-08-24T07:03:46;22.90;19.00
24217;DHT22;12356;49.386;8.688;2023-08-24T07:06:17;22.90;19.30
24217;DHT22;12356;49.386;8.688;2023-08-24T07:08:47;22.90;19.10
24217;DHT22;12356;49.386;8.688;2023-08-24T07:11:18;22.90;18.80
24217;DHT22;12356;49.386;8.688;2023-08-24T07:13:50;22.90;20.10
24217;DHT22;12356;49.386;8.688;2023-08-24T07:16:21;22.90;20.30
24217;DHT22;12356;49.386;8.688;2023-08-24T07:18:51;22.90;20.90
24217;DHT22;12356;49.386;8.688;2023-08-24T07:21:22;22.90;20.30
24217;DHT22;12356;49.386;8.688;2023-08-24T07:23:52;22.90;19.90
24217;DHT22;12356;49.386;8.688;2023-08-24T07:26:23;23.00;19.70
24217;DHT22;12356;49.386;8.688;2023-08-24T07:28:56;23.10;21.20
24217;DHT22;12356;49.386;8.688;2023-08-24T07:31:27;23.10;19.60
24217;DHT22;12356;49.386;8.688;2023-08-24T07:33:58;23.20;19.30
24217;DHT22;12356;49.386;8.688;2023-08-24T07:36:30;23.30;18.60
24217;DHT22;12356;49.386;8.688;2023-08-24T07:39:00;23.40;19.40
24217;DHT22;12356;49.386;8.688;2023-08-24T07:41:31;23.50;19.60
24217;DHT22;12356;49.386;8.688;2023-08-24T07:44:01;23.50;17.60
24217;DHT22;12356;49.386;8.688;2023-08-24T07:46:32;23.60;18.80
24217;DHT22;12356;49.386;8.688;2023-08-24T07:49:02;23.60;19.40
24217;DHT22;12356;49.386;8.688;2023-08-24T07:51:34;23.70;19.30
24217;DHT22;12356;49.386;8.688;2023-08-24T07:54:04;23.70;19.50
24217;DHT22;12356;49.386;8.688;2023-08-24T07:56:37;23.70;19.60
24217;DHT22;12356;49.386;8.688;2023-08-24T07:59:07;23.70;19.20
24217;DHT22;12356;49.386;8.688;2023-08-24T08:01:38;23.70;19.60
24217;DHT22;12356;49.386;8.688;2023-08-24T08:04:09;23.70;23.00
24217;DHT22;12356;49.386;8.688;2023-08-24T08:06:39;23.70;19.60
24217;DHT22;12356;49.386;8.688;2023-08-24T08:09:10;23.70;18.10
24217;DHT22;12356;49.386;8.688;2023-08-24T08:11:40;23.80;19.40
24217;DHT22;12356;49.386;8.688;2023-08-24T08:14:11;23.80;18.70
24217;DHT22;12356;49.386;8.688;2023-08-24T08:16:41;23.90;18.60
24217;DHT22;12356;49.386;8.688;2023-08-24T08:19:12;23.90;18.30
24217;DHT22;12356;49.386;8.688;2023-08-24T08:21:42;23.90;19.50
24217;DHT22;12356;49.386;8.688;2023-08-24T08:24:13;23.90;18.00
24217;DHT22;12356;49.386;8.688;2023-08-24T08:26:43;24.00;17.90
24217;DHT22;12356;49.386;8.688;2023-08-24T08:29:14;24.00;17.70
24217;DHT22;12356;49.386;8.688;2023-08-24T08:31:45;24.00;17.90
24217;DHT22;12356;49.386;8.688;2023-08-24T08:34:16;24.10;18.20
24217;DHT22;12356;49.386;8.688;2023-08-24T08:36:47;24.10;19.30
24217;DHT22;12356;49.386;8.688;2023-08-24T08:39:17;24.20;18.20
24217;DHT22;12356;49.386;8.688;2023-08-24T08:41:49;24.30;17.30
24217;DHT22;12356;49.386;8.688;2023-08-24T08:44:20;24.30;16.20
24217;DHT22;12356;49.386;8.688;2023-08-24T08:46:52;24.40;16.90
24217;DHT22;12356;49.386;8.688;2023-08-24T08:49:22;24.50;18.40
24217;DHT22;12356;49.386;8.688;2023-08-24T08:51:53;24.60;18.70
24217;DHT22;12356;49.386;8.688;2023-08-24T08:54:24;24.70;16.80
24217;DHT22;12356;49.386;8.688;2023-08-24T08:56:55;24.80;16.50
24217;DHT22;12356;49.386;8.688;2023-08-24T08:59:27;24.80;14.80
24217;DHT22;12356;49.386;8.688;2023-08-24T09:02:03;24.90;11.80
24217;DHT22;12356;49.386;8.688;2023-08-24T09:04:34;25.00;11.20
24217;DHT22;12356;49.386;8.688;2023-08-24T09:07:05;25.00;9.90
24217;DHT22;12356;49.386;8.688;2023-08-24T09:09:41;25.10;8.20
24217;DHT22;12356;49.386;8.688;2023-08-24T09:12:12;25.10;8.90
24217;DHT22;12356;49.386;8.688;2023-08-24T09:14:42;25.20;8.30
24217;DHT22;12356;49.386;8.688;2023-08-24T09:17:20;25.30;8.90
24217;DHT22;12356;49.386;8.688;2023-08-24T09:19:58;25.40;6.20
24217;DHT22;12356;49.386;8.688;2023-08-24T09:22:35;25.40;6.10
24217;DHT22;12356;49.386;8.688;2023-08-24T09:25:09;25.40;8.60
24217;DHT22;12356;49.386;8.688;2023-08-24T09:27:39;25.50;8.10
24217;DHT22;12356;49.386;8.688;2023-08-24T09:30:12;25.60;4.20
24217;DHT22;12356;49.386;8.688;2023-08-24T09:32:42;25.70;3.10
24217;DHT22;12356;49.386;8.688;2023-08-24T09:35:15;25.80;3.00
24217;DHT22;12356;49.386;8.688;2023-08-24T09:37:49;25.90;2.30
24217;DHT22;12356;49.386;8.688;2023-08-24T09:40:24;25.90;2.40
24217;DHT22;12356;49.386;8.688;2023-08-24T09:42:55;25.90;3.30
24217;DHT22;12356;49.386;8.688;2023-08-24T09:45:26;26.00;4.60
24217;DHT22;12356;49.386;8.688;2023-08-24T09:47:56;26.10;4.40
24217;DHT22;12356;49.386;8.688;2023-08-24T09:50:27;26.10;6.00
24217;DHT22;12356;49.386;8.688;2023-08-24T09:52:59;26.10;5.00
24217;DHT22;12356;49.386;8.688;2023-08-24T09:55:35;26.20;5.20
24217;DHT22;12356;49.386;8.688;2023-08-24T09:58:08;26.20;6.20
24217;DHT22;12356;49.386;8.688;2023-08-24T10:00:39;26.30;6.50
24217;DHT22;12356;49.386;8.688;2023-08-24T10:03:11;26.40;6.00
24217;DHT22;12356;49.386;8.688;2023-08-24T10:05:44;26.40;6.10
24217;DHT22;12356;49.386;8.688;2023-08-24T10:08:16;26.50;5.00
24217;DHT22;12356;49.386;8.688;2023-08-24T10:10:48;26.50;5.50
24217;DHT22;12356;49.386;8.688;2023-08-24T10:13:44;26.50;6.40
24217;DHT22;12356;49.386;8.688;2023-08-24T10:16:16;26.60;10.40
24217;DHT22;12356;49.386;8.688;2023-08-24T10:18:49;26.60;4.80
24217;DHT22;12356;49.386;8.688;2023-08-24T10:21:23;26.70;3.50
24217;DHT22;12356;49.386;8.688;2023-08-24T10:23:56;26.80;4.30
24217;DHT22;12356;49.386;8.688;2023-08-24T10:26:27;26.80;4.00
24217;DHT22;12356;49.386;8.688;2023-08-24T10:28:58;26.80;4.00
24217;DHT22;12356;49.386;8.688;2023-08-24T10:31:29;26.80;7.40
24217;DHT22;12356;49.386;8.688;2023-08-24T10:34:01;26.90;6.10
24217;DHT22;12356;49.386;8.688;2023-08-24T10:36:32;27.00;4.10
24217;DHT22;12356;49.386;8.688;2023-08-24T10:39:03;27.10;3.80
24217;DHT22;12356;49.386;8.688;2023-08-24T10:41:51;27.10;3.70
24217;DHT22;12356;49.386;8.688;2023-08-24T10:44:34;27.20;3.60
24217;DHT22;12356;49.386;8.688;2023-08-24T10:47:13;27.20;4.30
24217;DHT22;12356;49.386;8.688;2023-08-24T10:52:30;27.30;2.30
24217;DHT22;12356;49.386;8.688;2023-08-24T10:55:03;27.30;3.40
24217;DHT22;12356;49.386;8.688;2023-08-24T10:57:39;27.40;3.00
24217;DHT22;12356;49.386;8.688;2023-08-24T11:00:11;27.40;4.00
24217;DHT22;12356;49.386;8.688;2023-08-24T11:02:47;27.40;4.10
24217;DHT22;12356;49.386;8.688;2023-08-24T11:05:19;27.50;3.90
24217;DHT22;12356;49.386;8.688;2023-08-24T11:07:57;27.50;3.50
24217;DHT22;12356;49.386;8.688;2023-08-24T11:13:05;27.60;5.20
24217;DHT22;12356;49.386;8.688;2023-08-24T11:15:44;27.60;4.00
24217;DHT22;12356;49.386;8.688;2023-08-24T11:18:20;27.70;2.80
24217;DHT22;12356;49.386;8.688;2023-08-24T11:21:00;27.70;2.30
24217;DHT22;12356;49.386;8.688;2023-08-24T11:23:31;27.70;2.50
24217;DHT22;12356;49.386;8.688;2023-08-24T11:26:01;27.80;1.70
24217;DHT22;12356;49.386;8.688;2023-08-24T11:28:32;27.80;1.00
24217;DHT22;12356;49.386;8.688;2023-08-24T11:31:03;27.80;4.40
24217;DHT22;12356;49.386;8.688;2023-08-24T11:33:34;27.80;1.00
24217;DHT22;12356;49.386;8.688;2023-08-24T11:36:05;27.80;1.00
24217;DHT22;12356;49.386;8.688;2023-08-24T11:41:16;27.90;1.70
24217;DHT22;12356;49.386;8.688;2023-08-24T11:43:47;27.90;1.00
24217;DHT22;12356;49.386;8.688;2023-08-24T11:46:19;27.90;2.00
24217;DHT22;12356;49.386;8.688;2023-08-24T11:48:49;27.90;1.90
24217;DHT22;12356;49.386;8.688;2023-08-24T11:51:20;27.90;2.20
24217;DHT22;12356;49.386;8.688;2023-08-24T11:53:51;27.90;3.20
24217;DHT22;12356;49.386;8.688;2023-08-24T11:56:22;27.90;3.30
24217;DHT22;12356;49.386;8.688;2023-08-24T11:58:52;27.90;2.60
24217;DHT22;12356;49.386;8.688;2023-08-24T12:01:23;27.90;3.00
24217;DHT22;12356;49.386;8.688;2023-08-24T12:03:57;28.00;4.30
24217;DHT22;12356;49.386;8.688;2023-08-24T12:06:28;28.00;5.00
24217;DHT22;12356;49.386;8.688;2023-08-24T12:08:59;28.00;3.30
24217;DHT22;12356;49.386;8.688;2023-08-24T12:11:37;28.00;2.90
24217;DHT22;12356;49.386;8.688;2023-08-24T12:14:16;28.00;4.40
24217;DHT22;12356;49.386;8.688;2023-08-24T12:16:47;28.00;4.20
24217;DHT22;12356;49.386;8.688;2023-08-24T12:19:21;28.00;4.60
24217;DHT22;12356;49.386;8.688;2023-08-24T12:21:52;28.00;3.70
24217;DHT22;12356;49.386;8.688;2023-08-24T12:24:22;28.00;4.10
24217;DHT22;12356;49.386;8.688;2023-08-24T12:26:56;28.00;3.80
24217;DHT22;12356;49.386;8.688;2023-08-24T12:29:28;28.00;3.70
24217;DHT22;12356;49.386;8.688;2023-08-24T12:31:58;28.00;3.40
24217;DHT22;12356;49.386;8.688;2023-08-24T12:34:29;28.00;3.40
24217;DHT22;12356;49.386;8.688;2023-08-24T12:37:00;28.00;8.10
24217;DHT22;12356;49.386;8.688;2023-08-24T12:39:35;28.00;5.00
24217;DHT22;12356;49.386;8.688;2023-08-24T12:42:06;28.10;5.60
24217;DHT22;12356;49.386;8.688;2023-08-24T12:44:37;28.10;4.20
24217;DHT22;12356;49.386;8.688;2023-08-24T12:47:07;28.20;8.70
24217;DHT22;12356;49.386;8.688;2023-08-24T12:49:38;28.20;5.00
24217;DHT22;12356;49.386;8.688;2023-08-24T12:52:09;28.30;3.70
24217;DHT22;12356;49.386;8.688;2023-08-24T12:54:39;28.30;4.00
24217;DHT22;12356;49.386;8.688;2023-08-24T12:57:10;28.20;7.20
24217;DHT22;12356;49.386;8.688;2023-08-24T12:59:40;28.20;5.00
24217;DHT22;12356;49.386;8.688;2023-08-24T13:02:11;28.20;7.00
24217;DHT22;12356;49.386;8.688;2023-08-24T13:04:41;28.20;6.80
24217;DHT22;12356;49.386;8.688;2023-08-24T13:07:12;28.30;5.00
24217;DHT22;12356;49.386;8.688;2023-08-24T13:09:42;28.30;5.70
24217;DHT22;12356;49.386;8.688;2023-08-24T13:12:13;28.30;5.00
24217;DHT22;12356;49.386;8.688;2023-08-24T13:14:43;28.30;6.50
24217;DHT22;12356;49.386;8.688;2023-08-24T13:17:14;28.30;7.40
24217;DHT22;12356;49.386;8.688;2023-08-24T13:19:44;28.30;7.50
24217;DHT22;12356;49.386;8.688;2023-08-24T13:22:15;28.30;7.30
24217;DHT22;12356;49.386;8.688;2023-08-24T13:24:46;28.30;7.00
24217;DHT22;12356;49.386;8.688;2023-08-24T13:27:16;28.30;8.60
24217;DHT22;12356;49.386;8.688;2023-08-24T13:29:47;28.30;10.20
24217;DHT22;12356;49.386;8.688;2023-08-24T13:32:17;28.40;7.00
24217;DHT22;12356;49.386;8.688;2023-08-24T13:34:49;28.40;8.50
24217;DHT22;12356;49.386;8.688;2023-08-24T13:37:20;28.50;9.60
24217;DHT22;12356;49.386;8.688;2023-08-24T13:39:51;28.50;8.10
24217;DHT22;12356;49.386;8.688;2023-08-24T13:42:21;28.60;6.40
24217;DHT22;12356;49.386;8.688;2023-08-24T13:44:52;28.70;5.80
24217;DHT22;12356;49.386;8.688;2023-08-24T13:47:22;28.70;5.90
24217;DHT22;12356;49.386;8.688;2023-08-24T13:49:53;28.70;6.00
24217;DHT22;12356;49.386;8.688;2023-08-24T13:52:24;28.70;5.00
24217;DHT22;12356;49.386;8.688;2023-08-24T13:54:54;28.70;4.70
24217;DHT22;12356;49.386;8.688;2023-08-24T13:57:25;28.60;6.50
24217;DHT22;12356;49.386;8.688;2023-08-24T13:59:55;28.60;5.80
24217;DHT22;12356;49.386;8.688;2023-08-24T14:02:26;28.60;5.80
24217;DHT22;12356;49.386;8.688;2023-08-24T14:04:56;28.60;7.20
24217;DHT22;12356;49.386;8.688;2023-08-24T14:07:27;28.60;8.40
24217;DHT22;12356;49.386;8.688;2023-08-24T14:09:57;28.60;10.00
24217;DHT22;12356;49.386;8.688;2023-08-24T14:12:29;28.50;10.00
24217;DHT22;12356;49.386;8.688;2023-08-24T14:15:01;28.50;9.90
24217;DHT22;12356;49.386;8.688;2023-08-24T14:17:31;28.40;8.50
24217;DHT22;12356;49.386;8.688;2023-08-24T14:20:02;28.30;7.90
24217;DHT22;12356;49.386;8.688;2023-08-24T14:22:34;28.30;7.00
24217;DHT22;12356;49.386;8.688;2023-08-24T14:25:05;28.30;7.50
24217;DHT22;12356;49.386;8.688;2023-08-24T14:27:36;28.30;6.30
24217;DHT22;12356;49.386;8.688;2023-08-24T14:30:07;28.20;7.10
24217;DHT22;12356;49.386;8.688;2023-08-24T14:32:37;28.20;7.90
24217;DHT22;12356;49.386;8.688;2023-08-24T14:35:08;28.20;7.20
24217;DHT22;12356;49.386;8.688;2023-08-24T14:37:39;28.20;6.70
24217;DHT22;12356;49.386;8.688;2023-08-24T14:40:11;28.20;6.30
24217;DHT22;12356;49.386;8.688;2023-08-24T14:42:42;28.10;7.00
24217;DHT22;12356;49.386;8.688;2023-08-24T14:45:12;28.10;7.20
24217;DHT22;12356;49.386;8.688;2023-08-24T14:47:44;28.20;8.30
24217;DHT22;12356;49.386;8.688;2023-08-24T14:50:15;28.10;9.00
24217;DHT22;12356;49.386;8.688;2023-08-24T14:52:45;28.10;8.90
24217;DHT22;12356;49.386;8.688;2023-08-24T14:55:16;28.00;9.20
24217;DHT22;12356;49.386;8.688;2023-08-24T14:57:48;27.90;11.50
24217;DHT22;12356;49.386;8.688;2023-08-24T15:00:23;27.90;9.70
24217;DHT22;12356;49.386;8.688;2023-08-24T15:02:53;27.70;8.70
24217;DHT22;12356;49.386;8.688;2023-08-24T15:05:24;27.70;10.70
24217;DHT22;12356;49.386;8.688;2023-08-24T15:07:54;27.60;10.20
24217;DHT22;12356;49.386;8.688;2023-08-24T15:10:25;27.40;11.20
24217;DHT22;12356;49.386;8.688;2023-08-24T15:12:56;27.10;14.60
24217;DHT22;12356;49.386;8.688;2023-08-24T15:15:27;26.80;15.40
24217;DHT22;12356;49.386;8.688;2023-08-24T15:17:57;26.60;15.50
24217;DHT22;12356;49.386;8.688;2023-08-24T15:20:28;26.50;10.40
24217;DHT22;12356;49.386;8.688;2023-08-24T15:22:59;26.40;12.10
24217;DHT22;12356;49.386;8.688;2023-08-24T15:25:30;26.40;8.30
24217;DHT22;12356;49.386;8.688;2023-08-24T15:28:00;26.40;15.70
24217;DHT22;12356;49.386;8.688;2023-08-24T15:30:31;26.30;17.30
24217;DHT22;12356;49.386;8.688;2023-08-24T15:33:02;26.20;17.70
24217;DHT22;12356;49.386;8.688;2023-08-24T15:35:32;26.20;20.00
24217;DHT22;12356;49.386;8.688;2023-08-24T15:38:03;26.10;22.50
24217;DHT22;12356;49.386;8.688;2023-08-24T15:40:33;26.10;24.00
24217;DHT22;12356;49.386;8.688;2023-08-24T15:43:05;26.00;24.30
24217;DHT22;12356;49.386;8.688;2023-08-24T15:45:36;26.00;22.90
24217;DHT22;12356;49.386;8.688;2023-08-24T15:48:07;26.00;22.80
24217;DHT22;12356;49.386;8.688;2023-08-24T15:50:37;26.00;22.80
24217;DHT22;12356;49.386;8.688;2023-08-24T15:53:08;26.10;22.20
24217;DHT22;12356;49.386;8.688;2023-08-24T15:55:38;26.10;23.40
24217;DHT22;12356;49.386;8.688;2023-08-24T15:58:09;26.10;24.70
24217;DHT22;12356;49.386;8.688;2023-08-24T16:00:39;26.10;25.30
24217;DHT22;12356;49.386;8.688;2023-08-24T16:03:10;26.10;26.50
24217;DHT22;12356;49.386;8.688;2023-08-24T16:05:41;26.10;28.40
24217;DHT22;12356;49.386;8.688;2023-08-24T16:08:12;26.10;28.80
24217;DHT22;12356;49.386;8.688;2023-08-24T16:10:42;26.10;28.50
24217;DHT22;12356;49.386;8.688;2023-08-24T16:13:14;26.10;28.30
24217;DHT22;12356;49.386;8.688;2023-08-24T16:15:45;26.10;29.60
24217;DHT22;12356;49.386;8.688;2023-08-24T16:18:22;26.10;29.40